< < Back
Terminal Aerodrome Forecast


Current Version              Previous Versions:   1  2  3  4  5  6  7  8  9  

Terminal Aerodrome Forecast

800
FTUS42 KMLB 192300 AAB
TAFMCO
TAF AMD
KMCO 192300Z 1923/2018 03005KT 5SM -SHRA SCT025 BKN070 OVC100
      TEMPO 1923/2001 3SM SHRA BKN025 OVC050
     FM200100 04005KT P6SM VCSH BKN030 OVC060
     FM201400 VRB04KT P6SM VCSH BKN030 OVC060=

Latest METAR

351
SAUS70 KWBC 200600 RRF
MTRMCO
METAR KMCO 200553Z 08006KT 5SM RA BR SCT007 OVC044 22/21 A2996 RMK AO2
SLP145 P0022 60035 T02170211 10222 20217 58014


USA.gov is the U.S. government's official web portal to all federal, state and local government web resources and services.